Norfolk, VA (23502)

12:42 AM EST on February 11, 2016 (GMT -0500)
Moores Bridges WTP | | Change Station
CLOSE
Current Station
Personal Weather Station
Location: Norfolk, VA
Elevation: 9 ft
Nearby Weather Stations

Elev 9 ft 36.87 °N, 76.20 °W | Updated 14 minutes ago

Clear
Clear
29.7 °F
Feels Like 23 °F
N
7.0
Wind Variable Wind from WSW
Gusts 12.0 mph

Today
High -- | Low -- °F
--% Chance of Precip.
Yesterday
High -- | Low -- °F
Precip. -- in
Pressure 29.97 in
Visibility 10.0 miles
Clouds Clear
Windchill 23 °F
Dew Point 13 °F
Humidity 51%
Rainfall 0.00 in
Snow Depth Not available.
6:58 AM 5:40 PM
Waxing Crescent, 9% visible
METAR KORF 110451Z AUTO 27009G18KT 240V300 10SM CLR M01/M13 A2997 RMK AO2 SLP147 T10111128 400561011 TSNO
Pressure 29.97 in
Visibility 10.0 miles
Clouds Clear
Windchill 23 °F
Dew Point 13 °F
Humidity 51%
Rainfall 0.00 in
Snow Depth Not available.
6:58 AM 5:40 PM
Waxing Crescent, 9% visible
METAR KORF 110451Z AUTO 27009G18KT 240V300 10SM CLR M01/M13 A2997 RMK AO2 SLP147 T10111128 400561011 TSNO

10-Day Weather Forecast

Almanac

Astronomy

Feb. 11, 2016 Rise Set
Actual Time
Civil Twilight
Nautical Twilight
Astronomical Twilight
Moon
Length of Visible Light
Length of Day
Tomorrow will be .
, % of the Moon is Illuminated

Today's Extremes

State Highs State Lows

Community

WunderPhotos

Upload Photos

1,892,023 photos uploaded!

WunderBlog® & News

Nearby

Air Quality

  Air Quality AQ Index Pollutant
Not available.

Snow Depth

Station Depth Elevation

Earthquake Activity

City Distance Mag. Time & Date
Minimum magnitude displayed is 2.5.

Coastal Water Temperatures

Place Temperature

Stations

Nearby Weather Stations

Station Location Temp. Windchill Dew Point Humidity Wind Precip. Elev Updated Type
                   

Watches & Warnings

There are currently no watches in effect.